sensor_id;sensor_type;location;lat;lon;timestamp;pressure;altitude;pressure_sealevel;temperature;humidity
46430;BME280;32131;53.454;-6.180;2022-12-18T00:00:16;101385.66;;;0.71;100.00
46430;BME280;32131;53.454;-6.180;2022-12-18T00:02:44;101372.38;;;0.75;100.00
46430;BME280;32131;53.454;-6.180;2022-12-18T00:05:13;101386.16;;;0.79;100.00
46430;BME280;32131;53.454;-6.180;2022-12-18T00:07:43;101381.25;;;0.82;100.00
46430;BME280;32131;53.454;-6.180;2022-12-18T00:10:15;101381.47;;;0.85;100.00
46430;BME280;32131;53.454;-6.180;2022-12-18T00:12:43;101375.63;;;0.86;100.00
46430;BME280;32131;53.454;-6.180;2022-12-18T00:15:13;101366.41;;;0.88;100.00
46430;BME280;32131;53.454;-6.180;2022-12-18T00:17:44;101368.59;;;0.96;100.00
46430;BME280;32131;53.454;-6.180;2022-12-18T00:20:21;101373.16;;;1.01;100.00
46430;BME280;32131;53.454;-6.180;2022-12-18T00:22:54;101378.38;;;1.03;100.00
46430;BME280;32131;53.454;-6.180;2022-12-18T00:25:24;101376.69;;;1.03;100.00
46430;BME280;32131;53.454;-6.180;2022-12-18T00:27:56;101365.47;;;1.13;100.00
46430;BME280;32131;53.454;-6.180;2022-12-18T00:30:27;101372.47;;;1.31;100.00
46430;BME280;32131;53.454;-6.180;2022-12-18T00:32:58;101365.22;;;1.50;100.00
46430;BME280;32131;53.454;-6.180;2022-12-18T00:35:27;101374.88;;;1.69;100.00
46430;BME280;32131;53.454;-6.180;2022-12-18T00:37:57;101377.47;;;1.84;100.00
46430;BME280;32131;53.454;-6.180;2022-12-18T00:40:27;101382.44;;;1.96;100.00
46430;BME280;32131;53.454;-6.180;2022-12-18T00:42:55;101376.41;;;2.09;100.00
46430;BME280;32131;53.454;-6.180;2022-12-18T00:45:22;101385.41;;;2.17;100.00
46430;BME280;32131;53.454;-6.180;2022-12-18T00:47:53;101375.56;;;2.24;100.00
46430;BME280;32131;53.454;-6.180;2022-12-18T00:50:25;101367.31;;;2.28;100.00
46430;BME280;32131;53.454;-6.180;2022-12-18T00:53:04;101374.06;;;2.27;100.00
46430;BME280;32131;53.454;-6.180;2022-12-18T00:55:35;101366.63;;;2.30;100.00
46430;BME280;32131;53.454;-6.180;2022-12-18T00:58:05;101363.38;;;2.33;100.00
46430;BME280;32131;53.454;-6.180;2022-12-18T01:00:33;101353.97;;;2.32;100.00
46430;BME280;32131;53.454;-6.180;2022-12-18T01:03:02;101352.19;;;2.31;100.00
46430;BME280;32131;53.454;-6.180;2022-12-18T01:05:30;101358.00;;;2.28;100.00
46430;BME280;32131;53.454;-6.180;2022-12-18T01:08:02;101348.69;;;2.29;100.00
46430;BME280;32131;53.454;-6.180;2022-12-18T01:10:32;101348.84;;;2.32;100.00
46430;BME280;32131;53.454;-6.180;2022-12-18T01:13:02;101346.31;;;2.32;100.00
46430;BME280;32131;53.454;-6.180;2022-12-18T01:15:30;101337.09;;;2.34;100.00
46430;BME280;32131;53.454;-6.180;2022-12-18T01:18:01;101338.84;;;2.35;100.00
46430;BME280;32131;53.454;-6.180;2022-12-18T01:20:29;101322.00;;;2.37;100.00
46430;BME280;32131;53.454;-6.180;2022-12-18T01:22:59;101316.91;;;2.37;100.00
46430;BME280;32131;53.454;-6.180;2022-12-18T01:25:28;101316.44;;;2.29;100.00
46430;BME280;32131;53.454;-6.180;2022-12-18T01:27:57;101315.09;;;2.21;100.00
46430;BME280;32131;53.454;-6.180;2022-12-18T01:30:26;101309.47;;;2.12;100.00
46430;BME280;32131;53.454;-6.180;2022-12-18T01:32:54;101299.78;;;2.06;100.00
46430;BME280;32131;53.454;-6.180;2022-12-18T01:35:22;101310.19;;;2.09;100.00
46430;BME280;32131;53.454;-6.180;2022-12-18T01:37:54;101306.84;;;2.10;100.00
46430;BME280;32131;53.454;-6.180;2022-12-18T01:40:22;101306.84;;;2.10;100.00
46430;BME280;32131;53.454;-6.180;2022-12-18T01:42:51;101309.59;;;2.13;100.00
46430;BME280;32131;53.454;-6.180;2022-12-18T01:45:32;101309.47;;;2.12;100.00
46430;BME280;32131;53.454;-6.180;2022-12-18T01:48:02;101298.22;;;2.08;100.00
46430;BME280;32131;53.454;-6.180;2022-12-18T01:50:34;101293.91;;;2.07;100.00
46430;BME280;32131;53.454;-6.180;2022-12-18T01:53:10;101278.53;;;2.06;100.00
46430;BME280;32131;53.454;-6.180;2022-12-18T01:55:42;101268.16;;;2.02;100.00
46430;BME280;32131;53.454;-6.180;2022-12-18T01:58:11;101265.63;;;2.02;100.00
46430;BME280;32131;53.454;-6.180;2022-12-18T02:00:41;101264.56;;;1.99;100.00
46430;BME280;32131;53.454;-6.180;2022-12-18T02:03:10;101259.66;;;2.02;100.00
46430;BME280;32131;53.454;-6.180;2022-12-18T02:05:44;101249.66;;;2.05;100.00
46430;BME280;32131;53.454;-6.180;2022-12-18T02:08:20;101247.25;;;2.08;100.00
46430;BME280;32131;53.454;-6.180;2022-12-18T02:11:02;101243.34;;;2.13;100.00
46430;BME280;32131;53.454;-6.180;2022-12-18T02:13:41;101224.78;;;2.16;100.00
46430;BME280;32131;53.454;-6.180;2022-12-18T02:16:18;101229.09;;;2.17;100.00
46430;BME280;32131;53.454;-6.180;2022-12-18T02:18:53;101232.84;;;2.24;100.00
46430;BME280;32131;53.454;-6.180;2022-12-18T02:21:31;101217.22;;;2.32;100.00
46430;BME280;32131;53.454;-6.180;2022-12-18T02:24:17;101224.50;;;2.41;100.00
46430;BME280;32131;53.454;-6.180;2022-12-18T02:26:50;101225.81;;;2.49;100.00
46430;BME280;32131;53.454;-6.180;2022-12-18T02:29:23;101228.59;;;2.69;100.00
46430;BME280;32131;53.454;-6.180;2022-12-18T02:31:56;101231.91;;;2.83;100.00
46430;BME280;32131;53.454;-6.180;2022-12-18T02:34:28;101224.78;;;2.92;100.00
46430;BME280;32131;53.454;-6.180;2022-12-18T02:36:59;101222.31;;;3.10;100.00
46430;BME280;32131;53.454;-6.180;2022-12-18T02:39:33;101209.41;;;3.24;100.00
46430;BME280;32131;53.454;-6.180;2022-12-18T02:42:03;101212.31;;;3.30;100.00
46430;BME280;32131;53.454;-6.180;2022-12-18T02:44:35;101203.19;;;3.35;100.00
46430;BME280;32131;53.454;-6.180;2022-12-18T02:47:10;101203.69;;;3.44;100.00
46430;BME280;32131;53.454;-6.180;2022-12-18T02:49:46;101205.75;;;3.52;100.00
46430;BME280;32131;53.454;-6.180;2022-12-18T02:52:24;101210.22;;;3.56;100.00
46430;BME280;32131;53.454;-6.180;2022-12-18T02:55:02;101208.84;;;3.62;100.00
46430;BME280;32131;53.454;-6.180;2022-12-18T02:57:40;101208.59;;;3.74;100.00
46430;BME280;32131;53.454;-6.180;2022-12-18T03:00:14;101208.75;;;3.77;100.00
46430;BME280;32131;53.454;-6.180;2022-12-18T03:02:47;101192.94;;;3.85;100.00
46430;BME280;32131;53.454;-6.180;2022-12-18T03:05:19;101190.53;;;3.88;100.00
46430;BME280;32131;53.454;-6.180;2022-12-18T03:07:55;101172.88;;;3.92;100.00
46430;BME280;32131;53.454;-6.180;2022-12-18T03:10:27;101173.13;;;3.97;100.00
46430;BME280;32131;53.454;-6.180;2022-12-18T03:13:05;101172.31;;;3.98;100.00
46430;BME280;32131;53.454;-6.180;2022-12-18T03:15:38;101161.38;;;4.01;100.00
46430;BME280;32131;53.454;-6.180;2022-12-18T03:18:09;101152.91;;;4.02;100.00
46430;BME280;32131;53.454;-6.180;2022-12-18T03:20:40;101149.38;;;4.00;100.00
46430;BME280;32131;53.454;-6.180;2022-12-18T03:23:13;101125.19;;;3.93;100.00
46430;BME280;32131;53.454;-6.180;2022-12-18T03:25:44;101116.69;;;3.92;100.00
46430;BME280;32131;53.454;-6.180;2022-12-18T03:28:19;101109.81;;;3.91;100.00
46430;BME280;32131;53.454;-6.180;2022-12-18T03:30:51;101095.22;;;3.89;100.00
46430;BME280;32131;53.454;-6.180;2022-12-18T03:33:25;101089.31;;;3.90;100.00
46430;BME280;32131;53.454;-6.180;2022-12-18T03:35:55;101079.00;;;3.88;100.00
46430;BME280;32131;53.454;-6.180;2022-12-18T03:38:24;101070.47;;;3.88;100.00
46430;BME280;32131;53.454;-6.180;2022-12-18T03:41:02;101056.00;;;3.88;100.00
46430;BME280;32131;53.454;-6.180;2022-12-18T03:43:43;101067.91;;;3.88;100.00
46430;BME280;32131;53.454;-6.180;2022-12-18T03:46:20;101065.34;;;3.88;100.00
46430;BME280;32131;53.454;-6.180;2022-12-18T03:48:58;101083.25;;;3.88;100.00
46430;BME280;32131;53.454;-6.180;2022-12-18T03:51:34;101090.91;;;3.88;100.00
46430;BME280;32131;53.454;-6.180;2022-12-18T03:54:08;101085.00;;;3.89;100.00
46430;BME280;32131;53.454;-6.180;2022-12-18T03:56:40;101084.84;;;3.86;100.00
46430;BME280;32131;53.454;-6.180;2022-12-18T03:59:13;101089.16;;;3.87;100.00
46430;BME280;32131;53.454;-6.180;2022-12-18T04:01:47;101100.16;;;3.86;100.00
46430;BME280;32131;53.454;-6.180;2022-12-18T04:04:17;101087.31;;;3.84;100.00
46430;BME280;32131;53.454;-6.180;2022-12-18T04:06:47;101081.47;;;3.87;100.00
46430;BME280;32131;53.454;-6.180;2022-12-18T04:09:18;101076.38;;;3.87;100.00
46430;BME280;32131;53.454;-6.180;2022-12-18T04:11:47;101068.19;;;3.94;100.00
46430;BME280;32131;53.454;-6.180;2022-12-18T04:14:19;101067.47;;;3.97;100.00
46430;BME280;32131;53.454;-6.180;2022-12-18T04:16:50;101070.09;;;3.98;100.00
46430;BME280;32131;53.454;-6.180;2022-12-18T04:19:18;101065.63;;;3.94;100.00
46430;BME280;32131;53.454;-6.180;2022-12-18T04:21:46;101055.41;;;3.94;100.00
46430;BME280;32131;53.454;-6.180;2022-12-18T04:24:16;101048.50;;;3.91;100.00
46430;BME280;32131;53.454;-6.180;2022-12-18T04:26:45;101049.56;;;3.97;100.00
46430;BME280;32131;53.454;-6.180;2022-12-18T04:29:13;101027.59;;;4.00;100.00
46430;BME280;32131;53.454;-6.180;2022-12-18T04:31:44;101024.41;;;4.04;100.00
46430;BME280;32131;53.454;-6.180;2022-12-18T04:34:12;101019.41;;;4.07;100.00
46430;BME280;32131;53.454;-6.180;2022-12-18T04:36:41;101006.03;;;4.13;100.00
46430;BME280;32131;53.454;-6.180;2022-12-18T04:39:09;100989.16;;;4.17;100.00
46430;BME280;32131;53.454;-6.180;2022-12-18T04:41:38;100992.72;;;4.20;100.00
46430;BME280;32131;53.454;-6.180;2022-12-18T04:44:10;100963.91;;;4.23;100.00
46430;BME280;32131;53.454;-6.180;2022-12-18T04:46:43;100971.03;;;4.30;100.00
46430;BME280;32131;53.454;-6.180;2022-12-18T04:49:11;100958.50;;;4.36;100.00
46430;BME280;32131;53.454;-6.180;2022-12-18T04:51:40;100959.56;;;4.41;100.00
46430;BME280;32131;53.454;-6.180;2022-12-18T04:54:09;100965.78;;;4.47;100.00
46430;BME280;32131;53.454;-6.180;2022-12-18T04:56:37;100962.53;;;4.51;100.00
46430;BME280;32131;53.454;-6.180;2022-12-18T04:59:05;100962.69;;;4.54;100.00
46430;BME280;32131;53.454;-6.180;2022-12-18T05:01:36;100955.97;;;4.56;100.00
46430;BME280;32131;53.454;-6.180;2022-12-18T05:04:06;100950.16;;;4.60;100.00
46430;BME280;32131;53.454;-6.180;2022-12-18T05:06:34;100958.78;;;4.62;100.00
46430;BME280;32131;53.454;-6.180;2022-12-18T05:09:03;100952.13;;;4.66;100.00
46430;BME280;32131;53.454;-6.180;2022-12-18T05:11:33;100949.59;;;4.67;99.81
46430;BME280;32131;53.454;-6.180;2022-12-18T05:14:02;100940.31;;;4.69;99.69
46430;BME280;32131;53.454;-6.180;2022-12-18T05:16:33;100948.00;;;4.69;99.53
46430;BME280;32131;53.454;-6.180;2022-12-18T05:19:13;100936.16;;;4.71;99.56
46430;BME280;32131;53.454;-6.180;2022-12-18T05:21:42;100916.50;;;4.70;99.68
46430;BME280;32131;53.454;-6.180;2022-12-18T05:24:13;100914.13;;;4.75;99.66
46430;BME280;32131;53.454;-6.180;2022-12-18T05:26:43;100891.91;;;4.74;99.84
46430;BME280;32131;53.454;-6.180;2022-12-18T05:29:13;100899.72;;;4.77;100.00
46430;BME280;32131;53.454;-6.180;2022-12-18T05:31:46;100888.75;;;4.80;100.00
46430;BME280;32131;53.454;-6.180;2022-12-18T05:34:16;100891.41;;;4.83;99.78
46430;BME280;32131;53.454;-6.180;2022-12-18T05:36:45;100876.94;;;4.83;99.36
46430;BME280;32131;53.454;-6.180;2022-12-18T05:39:13;100875.25;;;4.84;99.75
46430;BME280;32131;53.454;-6.180;2022-12-18T05:41:41;100865.81;;;4.83;99.84
46430;BME280;32131;53.454;-6.180;2022-12-18T05:44:10;100865.00;;;4.84;100.00
46430;BME280;32131;53.454;-6.180;2022-12-18T05:46:38;100859.84;;;4.82;100.00
46430;BME280;32131;53.454;-6.180;2022-12-18T05:49:09;100847.09;;;4.84;99.76
46430;BME280;32131;53.454;-6.180;2022-12-18T05:51:39;100845.44;;;4.84;99.91
46430;BME280;32131;53.454;-6.180;2022-12-18T05:54:08;100851.41;;;4.85;100.00
46430;BME280;32131;53.454;-6.180;2022-12-18T05:56:36;100831.69;;;4.82;100.00
46430;BME280;32131;53.454;-6.180;2022-12-18T05:59:09;100839.38;;;4.82;99.96
46430;BME280;32131;53.454;-6.180;2022-12-18T06:01:37;100836.75;;;4.81;99.47
46430;BME280;32131;53.454;-6.180;2022-12-18T06:04:06;100825.63;;;4.80;99.25
46430;BME280;32131;53.454;-6.180;2022-12-18T06:06:37;100823.88;;;4.79;99.41
46430;BME280;32131;53.454;-6.180;2022-12-18T06:09:06;100822.16;;;4.78;98.86
46430;BME280;32131;53.454;-6.180;2022-12-18T06:11:36;100828.16;;;4.79;98.88
46430;BME280;32131;53.454;-6.180;2022-12-18T06:14:06;100834.03;;;4.76;98.79
46430;BME280;32131;53.454;-6.180;2022-12-18T06:16:34;100828.81;;;4.75;98.87
46430;BME280;32131;53.454;-6.180;2022-12-18T06:19:04;100819.53;;;4.77;98.82
46430;BME280;32131;53.454;-6.180;2022-12-18T06:21:35;100825.53;;;4.77;98.62
46430;BME280;32131;53.454;-6.180;2022-12-18T06:24:07;100812.66;;;4.76;98.60
46430;BME280;32131;53.454;-6.180;2022-12-18T06:26:37;100807.53;;;4.76;98.50
46430;BME280;32131;53.454;-6.180;2022-12-18T06:29:06;100800.75;;;4.76;98.28
46430;BME280;32131;53.454;-6.180;2022-12-18T06:31:34;100804.13;;;4.75;98.06
46430;BME280;32131;53.454;-6.180;2022-12-18T06:34:03;100793.94;;;4.77;97.95
46430;BME280;32131;53.454;-6.180;2022-12-18T06:36:31;100792.19;;;4.76;97.85
46430;BME280;32131;53.454;-6.180;2022-12-18T06:38:59;100780.28;;;4.76;97.41
46430;BME280;32131;53.454;-6.180;2022-12-18T06:41:29;100784.53;;;4.76;97.17
46430;BME280;32131;53.454;-6.180;2022-12-18T06:43:59;100764.13;;;4.77;96.89
46430;BME280;32131;53.454;-6.180;2022-12-18T06:46:27;100774.25;;;4.74;96.29
46430;BME280;32131;53.454;-6.180;2022-12-18T06:48:55;100765.63;;;4.72;96.11
46430;BME280;32131;53.454;-6.180;2022-12-18T06:51:25;100754.41;;;4.68;95.85
46430;BME280;32131;53.454;-6.180;2022-12-18T06:53:54;100742.41;;;4.67;95.97
46430;BME280;32131;53.454;-6.180;2022-12-18T06:56:22;100742.41;;;4.67;95.68
46430;BME280;32131;53.454;-6.180;2022-12-18T06:58:52;100747.44;;;4.64;95.31
46430;BME280;32131;53.454;-6.180;2022-12-18T07:01:21;100743.03;;;4.62;95.37
46430;BME280;32131;53.454;-6.180;2022-12-18T07:03:52;100737.94;;;4.62;95.84
46430;BME280;32131;53.454;-6.180;2022-12-18T07:06:23;100720.78;;;4.59;96.68
46430;BME280;32131;53.454;-6.180;2022-12-18T07:08:53;100725.78;;;4.56;97.06
46430;BME280;32131;53.454;-6.180;2022-12-18T07:11:21;100708.75;;;4.56;96.86
46430;BME280;32131;53.454;-6.180;2022-12-18T07:13:52;100711.13;;;4.52;94.62
46430;BME280;32131;53.454;-6.180;2022-12-18T07:16:20;100714.25;;;4.45;93.44
46430;BME280;32131;53.454;-6.180;2022-12-18T07:18:52;100697.06;;;4.40;92.28
46430;BME280;32131;53.454;-6.180;2022-12-18T07:21:21;100686.69;;;4.37;92.19
46430;BME280;32131;53.454;-6.180;2022-12-18T07:23:49;100682.22;;;4.32;90.97
46430;BME280;32131;53.454;-6.180;2022-12-18T07:26:19;100670.22;;;4.31;90.33
46430;BME280;32131;53.454;-6.180;2022-12-18T07:28:48;100680.53;;;4.32;91.38
46430;BME280;32131;53.454;-6.180;2022-12-18T07:31:20;100671.22;;;4.34;92.26
46430;BME280;32131;53.454;-6.180;2022-12-18T07:33:49;100672.31;;;4.39;92.77
46430;BME280;32131;53.454;-6.180;2022-12-18T07:36:19;100666.47;;;4.44;93.21
46430;BME280;32131;53.454;-6.180;2022-12-18T07:38:48;100676.84;;;4.47;93.46
46430;BME280;32131;53.454;-6.180;2022-12-18T07:41:18;100680.22;;;4.46;93.38
46430;BME280;32131;53.454;-6.180;2022-12-18T07:43:47;100678.59;;;4.48;93.67
46430;BME280;32131;53.454;-6.180;2022-12-18T07:46:18;100661.69;;;4.51;93.54
46430;BME280;32131;53.454;-6.180;2022-12-18T07:48:47;100644.78;;;4.55;92.98
46430;BME280;32131;53.454;-6.180;2022-12-18T07:51:16;100638.88;;;4.57;93.21
46430;BME280;32131;53.454;-6.180;2022-12-18T07:53:45;100633.91;;;4.61;93.27
46430;BME280;32131;53.454;-6.180;2022-12-18T07:56:18;100624.66;;;4.64;93.90
46430;BME280;32131;53.454;-6.180;2022-12-18T07:58:57;100614.44;;;4.64;94.22
46430;BME280;32131;53.454;-6.180;2022-12-18T08:01:27;100598.19;;;4.64;94.24
46430;BME280;32131;53.454;-6.180;2022-12-18T08:03:57;100590.44;;;4.61;93.78
46430;BME280;32131;53.454;-6.180;2022-12-18T08:06:28;100575.91;;;4.60;93.86
46430;BME280;32131;53.454;-6.180;2022-12-18T08:08:56;100569.88;;;4.59;94.26
46430;BME280;32131;53.454;-6.180;2022-12-18T08:11:26;100565.50;;;4.55;94.34
46430;BME280;32131;53.454;-6.180;2022-12-18T08:13:55;100549.22;;;4.53;94.48
46430;BME280;32131;53.454;-6.180;2022-12-18T08:16:24;100550.03;;;4.52;94.65
46430;BME280;32131;53.454;-6.180;2022-12-18T08:18:54;100555.84;;;4.48;95.19
46430;BME280;32131;53.454;-6.180;2022-12-18T08:21:23;100546.53;;;4.50;95.78
46430;BME280;32131;53.454;-6.180;2022-12-18T08:23:55;100539.75;;;4.50;95.64
46430;BME280;32131;53.454;-6.180;2022-12-18T08:26:25;100549.03;;;4.48;95.43
46430;BME280;32131;53.454;-6.180;2022-12-18T08:28:54;100526.91;;;4.49;95.01
46430;BME280;32131;53.454;-6.180;2022-12-18T08:31:26;100526.97;;;4.50;95.02
46430;BME280;32131;53.454;-6.180;2022-12-18T08:33:57;100515.97;;;4.53;94.84
46430;BME280;32131;53.454;-6.180;2022-12-18T08:36:26;100505.75;;;4.53;95.42
46430;BME280;32131;53.454;-6.180;2022-12-18T08:38:56;100500.59;;;4.51;96.11
46430;BME280;32131;53.454;-6.180;2022-12-18T08:41:26;100474.94;;;4.50;96.99
46430;BME280;32131;53.454;-6.180;2022-12-18T08:43:54;100492.91;;;4.51;97.67
46430;BME280;32131;53.454;-6.180;2022-12-18T08:46:44;100486.09;;;4.52;98.42
46430;BME280;32131;53.454;-6.180;2022-12-18T08:49:15;100482.72;;;4.53;98.73
46430;BME280;32131;53.454;-6.180;2022-12-18T08:51:43;100464.78;;;4.51;99.40
46430;BME280;32131;53.454;-6.180;2022-12-18T08:54:12;100468.19;;;4.52;100.00
46430;BME280;32131;53.454;-6.180;2022-12-18T08:56:40;100469.19;;;4.55;100.00
46430;BME280;32131;53.454;-6.180;2022-12-18T08:59:09;100464.88;;;4.54;100.00
46430;BME280;32131;53.454;-6.180;2022-12-18T09:01:46;100475.09;;;4.54;100.00
46430;BME280;32131;53.454;-6.180;2022-12-18T09:04:18;100465.75;;;4.55;100.00
46430;BME280;32131;53.454;-6.180;2022-12-18T09:06:48;100475.22;;;4.57;100.00
46430;BME280;32131;53.454;-6.180;2022-12-18T09:09:16;100469.25;;;4.57;100.00
46430;BME280;32131;53.454;-6.180;2022-12-18T09:11:46;100463.38;;;4.60;100.00
46430;BME280;32131;53.454;-6.180;2022-12-18T09:14:21;100441.31;;;4.63;100.00
46430;BME280;32131;53.454;-6.180;2022-12-18T09:16:50;100446.38;;;4.62;100.00
46430;BME280;32131;53.454;-6.180;2022-12-18T09:19:20;100437.03;;;4.62;100.00
46430;BME280;32131;53.454;-6.180;2022-12-18T09:21:49;100442.25;;;4.65;100.00
46430;BME280;32131;53.454;-6.180;2022-12-18T09:24:18;100407.31;;;4.66;100.00
46430;BME280;32131;53.454;-6.180;2022-12-18T09:26:53;100417.66;;;4.69;100.00
46430;BME280;32131;53.454;-6.180;2022-12-18T09:29:25;100419.41;;;4.70;100.00
46430;BME280;32131;53.454;-6.180;2022-12-18T09:31:53;100387.03;;;4.72;100.00
46430;BME280;32131;53.454;-6.180;2022-12-18T09:34:23;100392.94;;;4.69;100.00
46430;BME280;32131;53.454;-6.180;2022-12-18T09:36:51;100381.06;;;4.71;100.00
46430;BME280;32131;53.454;-6.180;2022-12-18T09:39:22;100363.16;;;4.71;100.00
46430;BME280;32131;53.454;-6.180;2022-12-18T09:41:54;100368.31;;;4.73;100.00
46430;BME280;32131;53.454;-6.180;2022-12-18T09:44:26;100370.06;;;4.74;100.00
46430;BME280;32131;53.454;-6.180;2022-12-18T09:47:03;100349.78;;;4.80;100.00
46430;BME280;32131;53.454;-6.180;2022-12-18T09:49:41;100369.50;;;4.83;100.00
46430;BME280;32131;53.454;-6.180;2022-12-18T09:52:14;100378.09;;;4.85;100.00
46430;BME280;32131;53.454;-6.180;2022-12-18T09:54:47;100368.78;;;4.87;100.00
46430;BME280;32131;53.454;-6.180;2022-12-18T09:57:20;100355.19;;;4.88;100.00
46430;BME280;32131;53.454;-6.180;2022-12-18T09:59:54;100346.75;;;4.92;100.00
46430;BME280;32131;53.454;-6.180;2022-12-18T10:02:26;100352.91;;;4.97;100.00
46430;BME280;32131;53.454;-6.180;2022-12-18T10:05:04;100335.03;;;4.99;100.00
46430;BME280;32131;53.454;-6.180;2022-12-18T10:07:45;100330.84;;;5.01;100.00
46430;BME280;32131;53.454;-6.180;2022-12-18T10:10:32;100313.91;;;5.04;100.00
46430;BME280;32131;53.454;-6.180;2022-12-18T10:13:09;100302.88;;;5.07;100.00
46430;BME280;32131;53.454;-6.180;2022-12-18T10:15:54;100314.88;;;5.08;100.00
46430;BME280;32131;53.454;-6.180;2022-12-18T10:18:42;100296.22;;;5.12;100.00
46430;BME280;32131;53.454;-6.180;2022-12-18T10:21:20;100296.31;;;5.15;100.00
46430;BME280;32131;53.454;-6.180;2022-12-18T10:23:56;100291.22;;;5.17;100.00
46430;BME280;32131;53.454;-6.180;2022-12-18T10:26:25;100306.69;;;5.20;100.00
46430;BME280;32131;53.454;-6.180;2022-12-18T10:28:57;100295.63;;;5.21;100.00
46430;BME280;32131;53.454;-6.180;2022-12-18T10:31:31;100288.88;;;5.23;100.00
46430;BME280;32131;53.454;-6.180;2022-12-18T10:34:00;100300.66;;;5.18;100.00
46430;BME280;32131;53.454;-6.180;2022-12-18T10:36:34;100285.50;;;5.24;100.00
46430;BME280;32131;53.454;-6.180;2022-12-18T10:39:24;100291.56;;;5.28;100.00
46430;BME280;32131;53.454;-6.180;2022-12-18T10:42:10;100293.31;;;5.29;100.00
46430;BME280;32131;53.454;-6.180;2022-12-18T10:44:40;100293.38;;;5.32;100.00
46430;BME280;32131;53.454;-6.180;2022-12-18T10:47:14;100286.63;;;5.34;100.00
46430;BME280;32131;53.454;-6.180;2022-12-18T10:49:49;100264.53;;;5.38;100.00
46430;BME280;32131;53.454;-6.180;2022-12-18T10:52:21;100252.72;;;5.43;100.00
46430;BME280;32131;53.454;-6.180;2022-12-18T10:54:58;100237.47;;;5.46;100.00
46430;BME280;32131;53.454;-6.180;2022-12-18T10:57:34;100223.19;;;5.54;100.00
46430;BME280;32131;53.454;-6.180;2022-12-18T11:00:23;100211.53;;;5.65;100.00
46430;BME280;32131;53.454;-6.180;2022-12-18T11:02:56;100201.47;;;5.73;100.00
46430;BME280;32131;53.454;-6.180;2022-12-18T11:05:28;100184.72;;;5.85;100.00
46430;BME280;32131;53.454;-6.180;2022-12-18T11:08:03;100175.59;;;5.96;100.00
46430;BME280;32131;53.454;-6.180;2022-12-18T11:10:35;100201.34;;;6.01;100.00
46430;BME280;32131;53.454;-6.180;2022-12-18T11:13:16;100206.47;;;6.01;100.00
46430;BME280;32131;53.454;-6.180;2022-12-18T11:15:47;100202.28;;;6.03;100.00
46430;BME280;32131;53.454;-6.180;2022-12-18T11:18:22;100192.69;;;5.97;100.00
46430;BME280;32131;53.454;-6.180;2022-12-18T11:20:52;100188.31;;;5.91;100.00
46430;BME280;32131;53.454;-6.180;2022-12-18T11:23:30;100155.81;;;5.90;100.00
46430;BME280;32131;53.454;-6.180;2022-12-18T11:26:03;100162.59;;;5.88;100.00
46430;BME280;32131;53.454;-6.180;2022-12-18T11:28:37;100152.44;;;5.91;100.00
46430;BME280;32131;53.454;-6.180;2022-12-18T11:31:18;100126.84;;;5.94;100.00
46430;BME280;32131;53.454;-6.180;2022-12-18T11:33:55;100125.22;;;5.96;100.00
46430;BME280;32131;53.454;-6.180;2022-12-18T11:36:46;100120.09;;;5.96;100.00
46430;BME280;32131;53.454;-6.180;2022-12-18T11:39:35;100106.41;;;5.96;100.00
46430;BME280;32131;53.454;-6.180;2022-12-18T11:42:12;100096.34;;;6.02;100.00
46430;BME280;32131;53.454;-6.180;2022-12-18T11:44:48;100102.44;;;6.09;100.00
46430;BME280;32131;53.454;-6.180;2022-12-18T11:47:26;100094.84;;;6.12;100.00
46430;BME280;32131;53.454;-6.180;2022-12-18T11:50:01;100085.41;;;6.11;100.00
46430;BME280;32131;53.454;-6.180;2022-12-18T11:52:34;100072.72;;;6.17;100.00
46430;BME280;32131;53.454;-6.180;2022-12-18T11:55:11;100063.50;;;6.25;100.00
46430;BME280;32131;53.454;-6.180;2022-12-18T11:57:47;100063.63;;;6.30;100.00
46430;BME280;32131;53.454;-6.180;2022-12-18T12:00:23;100051.69;;;6.31;100.00
46430;BME280;32131;53.454;-6.180;2022-12-18T12:03:21;100058.59;;;6.35;100.00
46430;BME280;32131;53.454;-6.180;2022-12-18T12:06:13;100050.97;;;6.38;100.00
46430;BME280;32131;53.454;-6.180;2022-12-18T12:08:58;100056.09;;;6.38;100.00
46430;BME280;32131;53.454;-6.180;2022-12-18T12:11:41;100050.22;;;6.42;100.00
46430;BME280;32131;53.454;-6.180;2022-12-18T12:14:23;100048.50;;;6.42;100.00
46430;BME280;32131;53.454;-6.180;2022-12-18T12:16:58;100050.25;;;6.43;100.00
46430;BME280;32131;53.454;-6.180;2022-12-18T12:19:38;100041.81;;;6.49;100.00
46430;BME280;32131;53.454;-6.180;2022-12-18T12:22:16;100029.09;;;6.54;100.00
46430;BME280;32131;53.454;-6.180;2022-12-18T12:25:17;100012.09;;;6.60;100.00
46430;BME280;32131;53.454;-6.180;2022-12-18T12:27:58;100000.28;;;6.67;100.00
46430;BME280;32131;53.454;-6.180;2022-12-18T12:30:43;99967.81;;;6.69;100.00
46430;BME280;32131;53.454;-6.180;2022-12-18T12:33:30;99981.63;;;6.76;100.00
46430;BME280;32131;53.454;-6.180;2022-12-18T12:36:13;99969.78;;;6.84;100.00
46430;BME280;32131;53.454;-6.180;2022-12-18T12:38:47;99957.03;;;6.87;100.00
46430;BME280;32131;53.454;-6.180;2022-12-18T12:41:21;99950.25;;;6.92;100.00
46430;BME280;32131;53.454;-6.180;2022-12-18T12:44:15;99934.94;;;6.97;100.00
46430;BME280;32131;53.454;-6.180;2022-12-18T12:46:46;99930.84;;;7.07;100.00
46430;BME280;32131;53.454;-6.180;2022-12-18T12:49:30;99920.75;;;7.16;100.00
46430;BME280;32131;53.454;-6.180;2022-12-18T12:52:12;99909.69;;;7.22;100.00
46430;BME280;32131;53.454;-6.180;2022-12-18T12:54:42;99896.13;;;7.29;100.00
46430;BME280;32131;53.454;-6.180;2022-12-18T12:57:22;99898.78;;;7.37;100.00
46430;BME280;32131;53.454;-6.180;2022-12-18T12:59:59;99890.31;;;7.44;100.00
46430;BME280;32131;53.454;-6.180;2022-12-18T13:02:42;99890.38;;;7.47;100.00
46430;BME280;32131;53.454;-6.180;2022-12-18T13:05:19;99877.59;;;7.50;100.00
46430;BME280;32131;53.454;-6.180;2022-12-18T13:07:57;99862.25;;;7.57;100.00
46430;BME280;32131;53.454;-6.180;2022-12-18T13:10:34;99864.00;;;7.61;100.00